createdAt,value
2022-11-28T00:09:04.885Z,7.3
2022-11-28T00:19:05.419Z,7.1
2022-11-28T00:29:06.160Z,7.1
2022-11-28T00:29:28.037Z,7.1
2022-11-28T00:39:12.569Z,7.1
2022-11-28T00:59:13.611Z,7.3
2022-11-28T01:09:13.696Z,7.3
2022-11-28T01:19:14.644Z,7.1
2022-11-28T01:29:15.191Z,7
2022-11-28T01:39:15.273Z,6.9
2022-11-28T01:49:15.452Z,6.9
2022-11-28T01:59:15.631Z,6.9
2022-11-28T02:19:16.082Z,6.8
2022-11-28T02:29:17.120Z,6.8
2022-11-28T02:39:17.277Z,6.8
2022-11-28T02:49:18.089Z,6.8
2022-11-28T02:59:18.656Z,6.9
2022-11-28T03:09:18.807Z,7
2022-11-28T03:19:19.453Z,7.1
2022-11-28T03:29:20.067Z,7.3
2022-11-28T03:49:20.727Z,7.1
2022-11-28T03:59:20.992Z,7
2022-11-28T04:09:21.826Z,6.9
2022-11-28T04:19:22.740Z,6.9
2022-11-28T04:29:23.466Z,6.8
2022-11-28T04:39:24.121Z,6.9
2022-11-28T04:49:24.811Z,7
2022-11-28T04:59:24.984Z,7
2022-11-28T05:09:25.629Z,7.1
2022-11-28T05:19:25.853Z,7.2
2022-11-28T05:29:26.229Z,7.4
2022-11-28T05:39:27.041Z,7.5
2022-11-28T05:49:27.709Z,7.4
2022-11-28T05:59:28.766Z,7.2
2022-11-28T06:09:28.902Z,7.3
2022-11-28T06:19:29.841Z,7.4
2022-11-28T06:29:30.332Z,7.5
2022-11-28T06:39:31.115Z,7.5
2022-11-28T06:49:31.296Z,7.4
2022-11-28T06:59:32.081Z,7.4
2022-11-28T07:09:32.128Z,7.4
2022-11-28T07:19:32.256Z,7.5
2022-11-28T07:29:32.887Z,7.4
2022-11-28T07:39:33.572Z,7.5
2022-11-28T07:49:34.432Z,7.5
2022-11-28T07:59:34.962Z,7.5
2022-11-28T08:09:35.487Z,7.5
2022-11-28T08:19:36.080Z,7.6
2022-11-28T08:29:36.646Z,7.6
2022-11-28T08:49:36.974Z,7.6
2022-11-28T08:59:37.564Z,7.5
2022-11-28T09:09:37.616Z,7.5
2022-11-28T09:19:38.583Z,7.6
2022-11-28T09:29:39.319Z,7.6
2022-11-28T09:39:50.499Z,7.8
2022-11-28T09:49:41.212Z,7.8
2022-11-28T09:59:41.029Z,8
2022-11-28T10:09:41.083Z,8
2022-11-28T10:19:53.701Z,7.9
2022-11-28T10:39:42.382Z,7.9
2022-11-28T10:49:43.170Z,7.9
2022-11-28T10:59:44.231Z,7.8
2022-11-28T11:09:44.297Z,8
2022-11-28T11:19:44.740Z,8
2022-11-28T11:29:45.261Z,7.9
2022-11-28T11:39:45.422Z,7.8
2022-11-28T11:49:46.205Z,7.9
2022-11-28T11:59:46.900Z,7.8
2022-11-28T12:09:47.935Z,7.9
2022-11-28T12:19:48.329Z,8
2022-11-28T12:29:48.479Z,7.9
2022-11-28T12:39:48.688Z,7.9
2022-11-28T12:49:48.895Z,7.9
2022-11-28T12:59:49.735Z,8
2022-11-28T13:09:50.000Z,7.9
2022-11-28T13:19:50.909Z,7.9
2022-11-28T13:29:50.957Z,7.8
2022-11-28T13:39:51.520Z,7.7
2022-11-28T13:49:51.857Z,7.7
2022-11-28T13:59:52.350Z,7.6
2022-11-28T14:09:53.250Z,7.6
2022-11-28T14:29:53.957Z,7.5
2022-11-28T14:39:54.886Z,7.5
2022-11-28T14:49:55.818Z,7.5
2022-11-28T14:59:56.704Z,7.6
2022-11-28T15:19:57.151Z,7.6
2022-11-28T15:39:57.628Z,7.5
2022-11-28T15:49:58.192Z,7.6
2022-11-28T15:59:58.800Z,7.5
2022-11-28T16:09:59.235Z,7.5
2022-11-28T16:20:00.211Z,7.5
2022-11-28T16:30:00.753Z,7.6
2022-11-28T16:40:01.091Z,7.5
2022-11-28T16:50:01.457Z,7.7
2022-11-28T17:00:01.988Z,7.6
2022-11-28T17:10:02.682Z,7.7
2022-11-28T17:20:02.774Z,7.7
2022-11-28T17:30:03.560Z,7.8
2022-11-28T17:40:03.891Z,7.8
2022-11-28T17:50:04.210Z,7.8
2022-11-28T18:00:04.779Z,7.8
2022-11-28T18:10:05.235Z,7.8
2022-11-28T18:20:05.663Z,7.9
2022-11-28T18:30:05.816Z,7.9
2022-11-28T18:40:09.097Z,7.9
2022-11-28T18:50:06.786Z,8
2022-11-28T19:00:07.140Z,8
2022-11-28T19:10:07.220Z,8
2022-11-28T19:20:07.537Z,8.1
2022-11-28T20:00:09.908Z,8.1
2022-11-28T20:30:11.660Z,8.1
2022-11-28T20:50:12.422Z,8.2
2022-11-28T21:00:13.339Z,8.2
2022-11-28T21:10:14.018Z,8.2
2022-11-28T21:20:14.959Z,8.2
2022-11-28T21:30:15.355Z,8.2
2022-11-28T21:40:16.092Z,8.2
2022-11-28T21:50:16.899Z,8.3
2022-11-28T22:00:38.518Z,8.3
2022-11-28T22:10:18.603Z,8.3
2022-11-28T22:20:19.360Z,8.3
2022-11-28T22:30:20.099Z,8.3
2022-11-28T22:40:20.334Z,8.3
2022-11-28T22:50:21.098Z,8.3
2022-11-28T23:00:21.678Z,8.3
2022-11-28T23:10:21.776Z,8.3
2022-11-28T23:20:22.519Z,8.3
2022-11-28T23:30:22.729Z,8.3
2022-11-28T23:40:23.249Z,8.3
2022-11-28T23:50:23.484Z,8.4
